Time;durP1;ratioP1;P1;durP2;ratioP2;P2;SDS_P1;SDS_P2;PMS_P1;PMS_P2;Temp;Humidity;BMP_temperature;BMP_pressure;BME280_temperature;BME280_humidity;BME280_pressure;Samples;Min_cycle;Max_cycle;Signal;HPM_P1;HPM_P2
2022/01/22 00:00:51;;;;;;;;;;;0.30;91.30;;;;;;5021111;28;19901;-93
2022/01/22 00:03:19;;;;;;;;;;;0.30;91.30;;;;;;5020789;28;19916;-93
2022/01/22 00:05:50;;;;;;;;;;;0.30;91.20;;;;;;5013263;28;19917;-94
2022/01/22 00:08:21;;;;;;;;;;;0.30;91.00;;;;;;5014162;28;19948;-94
2022/01/22 00:10:49;;;;;;;;;;;0.30;91.10;;;;;;5007848;28;19909;-94
2022/01/22 00:16:22;;;;;;;;;;;;;;;;;;;;;
2022/01/22 00:18:57;;;;;;;;;;;0.40;91.10;;;;;;5025710;28;19986;-93
2022/01/22 00:22:16;;;;;;;;;;;0.40;91.00;;;;;;4798039;27;11012069;-94
2022/01/22 00:24:52;;;;;;;;;;;0.40;91.00;;;;;;5161755;27;19918;-94
2022/01/22 00:27:55;;;;;;;;;;;0.50;91.00;;;;;;5168036;27;19907;-94
2022/01/22 00:30:39;;;;;;;;;;;0.50;90.90;;;;;;5168217;27;19907;-94
2022/01/22 00:33:15;;;;;;;;;;;0.60;90.50;;;;;;5167622;27;19907;-93
2022/01/22 00:35:52;;;;;;;;;;;0.50;90.30;;;;;;5184865;27;19913;-94
2022/01/22 00:38:23;;;;;;;;;;;0.50;90.20;;;;;;5164716;27;19911;-93
2022/01/22 00:40:51;;;;;;;;;;;0.50;90.40;;;;;;5169329;27;20273;-94
2022/01/22 00:43:20;;;;;;;;;;;0.50;90.50;;;;;;5154425;27;19912;-94
2022/01/22 00:45:51;;;;;;;;;;;0.50;90.40;;;;;;5146643;27;19922;-94
2022/01/22 00:48:19;;;;;;;;;;;0.40;90.10;;;;;;5142279;27;19914;-93
2022/01/22 00:50:50;;;;;;;;;;;0.30;90.30;;;;;;5145019;27;19914;-93
2022/01/22 00:53:35;;;;;;;;;;;0.30;90.30;;;;;;5146796;27;20381;-93
2022/01/22 00:56:00;;;;;;;;;;;0.30;90.50;;;;;;5144507;27;20253;-94
2022/01/22 00:58:26;;;;;;;;;;;0.30;90.60;;;;;;5143192;27;19994;-94
2022/01/22 01:00:59;;;;;;;;;;;0.30;90.40;;;;;;5142975;27;19917;-94
2022/01/22 01:03:35;;;;;;;;;;;;;;;;;;;;;
2022/01/22 01:06:10;;;;;;;;;;;0.30;90.30;;;;;;5161933;27;19970;-95
2022/01/22 01:08:43;;;;;;;;;;;0.30;90.20;;;;;;5144607;27;19908;-93
2022/01/22 01:11:12;;;;;;;;;;;0.20;90.40;;;;;;5143427;27;19907;-92
2022/01/22 01:13:45;;;;;;;;;;;0.20;90.40;;;;;;5142457;27;19907;-95
2022/01/22 01:36:15;;;;;;;;;;;;;;;;;;;;;
2022/01/22 01:38:59;;;;;;;;;;;0.30;90.50;;;;;;5141956;27;19994;-94
2022/01/22 01:41:57;;;;;;;;;;;0.30;90.20;;;;;;5131566;27;19916;-94
2022/01/22 01:44:28;;;;;;;;;;;0.30;90.30;;;;;;5129091;27;19915;-94
2022/01/22 01:47:03;;;;;;;;;;;0.30;90.40;;;;;;5149180;27;19911;-94
2022/01/22 01:49:32;;;;;;;;;;;0.20;90.30;;;;;;5131653;27;19914;-93
2022/01/22 01:52:06;;;;;;;;;;;0.20;90.60;;;;;;5135230;27;19914;-93
2022/01/22 01:57:55;;;;;;;;;;;;;;;;;;;;;
2022/01/22 02:00:39;;;;;;;;;;;0.20;90.70;;;;;;5148878;27;19998;-94
2022/01/22 02:03:08;;;;;;;;;;;0.20;90.80;;;;;;5130282;27;19907;-94
2022/01/22 02:05:46;;;;;;;;;;;0.20;91.00;;;;;;5128762;27;19915;-93
2022/01/22 02:08:17;;;;;;;;;;;0.20;91.10;;;;;;5130128;27;19915;-94
2022/01/22 02:10:58;;;;;;;;;;;0.20;91.10;;;;;;5126765;27;19947;-93
2022/01/22 02:13:57;;;;;;;;;;;;;;;;;;;;;
2022/01/22 02:25:07;;;;;;;;;;;0.30;91.20;;;;;;5151414;27;19956;-93
2022/01/22 02:27:40;;;;;;;;;;;0.30;91.10;;;;;;5133825;27;19911;-94
2022/01/22 02:30:36;;;;;;;;;;;0.30;91.10;;;;;;5127855;27;20388;-93
2022/01/22 02:41:42;;;;;;;;;;;0.20;91.40;;;;;;5150400;27;19923;-93
2022/01/22 02:44:33;;;;;;;;;;;0.20;91.40;;;;;;5130401;27;19938;-93
2022/01/22 02:47:17;;;;;;;;;;;0.20;91.60;;;;;;5132258;27;19919;-94
2022/01/22 02:49:52;;;;;;;;;;;0.20;91.90;;;;;;5132859;27;19936;-93
2022/01/22 02:52:25;;;;;;;;;;;0.20;92.00;;;;;;5134483;27;19907;-93
2022/01/22 02:54:55;;;;;;;;;;;0.10;92.10;;;;;;5128954;27;19933;-94
2022/01/22 02:57:34;;;;;;;;;;;0.10;92.10;;;;;;5144634;27;20361;-94
2022/01/22 03:00:21;;;;;;;;;;;0.20;92.50;;;;;;5130918;27;19911;-94
2022/01/22 03:02:48;;;;;;;;;;;0.20;92.40;;;;;;5130606;27;19911;-94
2022/01/22 03:05:23;;;;;;;;;;;0.20;92.50;;;;;;5131243;27;19907;-94
2022/01/22 03:07:54;;;;;;;;;;;0.20;92.80;;;;;;5128028;27;19915;-94
2022/01/22 03:10:25;;;;;;;;;;;0.20;92.60;;;;;;5128505;27;19912;-93
2022/01/22 03:13:19;;;;;;;;;;;0.20;92.70;;;;;;5128158;27;19994;-93
2022/01/22 03:29:31;;;;;;;;;;;0.30;93.00;;;;;;5144043;27;19922;-93
2022/01/22 03:31:59;;;;;;;;;;;0.30;93.10;;;;;;5126557;27;19915;-93
2022/01/22 03:34:27;;;;;;;;;;;0.20;93.00;;;;;;5127214;27;19908;-94
2022/01/22 03:37:02;;;;;;;;;;;0.20;93.20;;;;;;5130375;27;19939;-94
2022/01/22 03:39:46;;;;;;;;;;;0.20;93.60;;;;;;5124822;27;19908;-94
2022/01/22 03:42:27;;;;;;;;;;;;;;;;;;;;;
2022/01/22 03:45:14;;;;;;;;;;;0.20;93.50;;;;;;5148031;27;20010;-93
2022/01/22 03:47:49;;;;;;;;;;;0.20;93.70;;;;;;5131485;28;19898;-93
2022/01/22 03:50:42;;;;;;;;;;;;;;;;;;;;;
2022/01/22 03:53:28;;;;;;;;;;;0.10;94.60;;;;;;5147027;27;19983;-94
2022/01/22 03:58:58;;;;;;;;;;;0.10;94.30;;;;;;5140970;27;19975;-94
2022/01/22 04:04:47;;;;;;;;;;;0.10;94.40;;;;;;5151288;27;19933;-93
2022/01/22 04:10:13;;;;;;;;;;;0.10;94.80;;;;;;5153491;27;19914;-93
2022/01/22 04:13:10;;;;;;;;;;;;;;;;;;;;;
2022/01/22 04:15:40;;;;;;;;;;;0.10;94.60;;;;;;5156555;27;19923;-93
2022/01/22 04:29:44;;;;;;;;;;;0.10;94.90;;;;;;5150063;28;19989;-93
2022/01/22 04:40:47;;;;;;;;;;;0.00;95.60;;;;;;5151152;28;19946;-93
2022/01/22 04:43:19;;;;;;;;;;;0.00;95.90;;;;;;5134226;28;19912;-93
2022/01/22 04:56:55;;;;;;;;;;;-0.10;96.90;;;;;;5154193;28;19953;-94
2022/01/22 04:59:27;;;;;;;;;;;-0.20;97.20;;;;;;5133797;28;19914;-93
2022/01/22 05:02:07;;;;;;;;;;;-0.20;97.00;;;;;;5135132;28;19911;-93
2022/01/22 05:04:38;;;;;;;;;;;-0.20;96.90;;;;;;5136499;28;19919;-92
2022/01/22 05:07:09;;;;;;;;;;;-0.10;97.00;;;;;;5137795;27;19929;-93
2022/01/22 05:09:38;;;;;;;;;;;-0.10;96.50;;;;;;5138031;27;19907;-94
2022/01/22 05:15:02;;;;;;;;;;;-0.10;96.90;;;;;;5155424;27;19997;-93
2022/01/22 05:17:35;;;;;;;;;;;-0.20;97.30;;;;;;5138233;27;19914;-93
2022/01/22 05:25:40;;;;;;;;;;;-0.30;97.30;;;;;;5152549;27;19957;-94
2022/01/22 05:31:24;;;;;;;;;;;-0.30;97.40;;;;;;5084209;27;19944;-93
2022/01/22 05:42:15;;;;;;;;;;;-0.20;97.20;;;;;;5152171;27;19937;-93
2022/01/22 05:44:53;;;;;;;;;;;-0.20;97.30;;;;;;5137149;27;19923;-93
2022/01/22 05:47:44;;;;;;;;;;;-0.20;97.10;;;;;;5137023;27;20373;-93
2022/01/22 05:50:23;;;;;;;;;;;;;;;;;;;;;
2022/01/22 05:53:18;;;;;;;;;;;-0.20;97.20;;;;;;5155235;27;19942;-93
2022/01/22 06:01:30;;;;;;;;;;;-0.20;97.20;;;;;;5155116;27;19922;-94
2022/01/22 06:03:59;;;;;;;;;;;-0.20;97.20;;;;;;5154455;27;19915;-91
2022/01/22 06:06:29;;;;;;;;;;;-0.20;97.20;;;;;;5130129;27;19964;-93
2022/01/22 06:09:01;;;;;;;;;;;-0.20;97.20;;;;;;5134798;27;19956;-93
2022/01/22 06:11:36;;;;;;;;;;;-0.30;98.20;;;;;;5136545;27;19911;-92
2022/01/22 06:14:17;;;;;;;;;;;-0.30;98.00;;;;;;5136934;27;19993;-92
2022/01/22 06:16:45;;;;;;;;;;;-0.30;98.10;;;;;;5154142;27;19914;-93
2022/01/22 06:19:14;;;;;;;;;;;-0.20;98.10;;;;;;5135001;27;19907;-92
2022/01/22 06:21:50;;;;;;;;;;;-0.20;98.20;;;;;;5138800;27;19920;-92
2022/01/22 06:24:32;;;;;;;;;;;-0.20;98.10;;;;;;5138776;27;19921;-93
2022/01/22 06:27:03;;;;;;;;;;;-0.20;98.70;;;;;;5154829;27;19908;-94
2022/01/22 06:29:29;;;;;;;;;;;-0.30;98.70;;;;;;5132962;27;19908;-93
2022/01/22 06:31:55;;;;;;;;;;;-0.30;98.50;;;;;;5132623;27;19907;-93
2022/01/22 06:34:21;;;;;;;;;;;-0.30;98.40;;;;;;5131267;27;19907;-93
2022/01/22 06:36:52;;;;;;;;;;;-0.30;98.90;;;;;;5130821;27;19908;-94
2022/01/22 06:39:20;;;;;;;;;;;-0.30;98.70;;;;;;5131892;27;19907;-94
2022/01/22 06:41:53;;;;;;;;;;;-0.30;99.20;;;;;;5133185;27;19916;-93
2022/01/22 06:44:22;;;;;;;;;;;-0.30;98.80;;;;;;5134664;27;19943;-92
2022/01/22 06:47:05;;;;;;;;;;;-0.20;98.90;;;;;;5137058;27;19975;-92
2022/01/22 06:49:33;;;;;;;;;;;-0.10;98.90;;;;;;5136772;27;19942;-94
2022/01/22 06:52:01;;;;;;;;;;;0.00;98.90;;;;;;5135680;27;19908;-93
2022/01/22 06:54:38;;;;;;;;;;;0.10;98.70;;;;;;5135429;27;19911;-93
2022/01/22 06:57:06;;;;;;;;;;;0.20;98.60;;;;;;5136010;27;19964;-94
2022/01/22 06:59:32;;;;;;;;;;;0.40;98.50;;;;;;5134703;27;19938;-94
2022/01/22 07:02:25;;;;;;;;;;;0.40;98.30;;;;;;5134016;27;19912;-95
2022/01/22 07:04:53;;;;;;;;;;;0.60;98.40;;;;;;5125159;27;19946;-94
2022/01/22 07:07:37;;;;;;;;;;;0.70;98.10;;;;;;5137543;27;20311;-95
2022/01/22 07:10:37;;;;;;;;;;;0.80;97.70;;;;;;5136260;27;19914;-94
2022/01/22 07:16:21;;;;;;;;;;;1.00;97.30;;;;;;5147765;27;19907;-94
2022/01/22 07:18:49;;;;;;;;;;;1.00;96.90;;;;;;5151095;27;19911;-95
2022/01/22 07:21:20;;;;;;;;;;;1.10;96.80;;;;;;5130069;27;19920;-94
2022/01/22 07:26:12;;;;;;;;;;;1.10;96.70;;;;;;5147073;27;19907;-94
2022/01/22 07:28:39;;;;;;;;;;;1.00;96.50;;;;;;5129663;27;19939;-95
2022/01/22 07:31:10;;;;;;;;;;;1.00;96.50;;;;;;5111476;27;19923;-93
2022/01/22 07:33:44;;;;;;;;;;;1.00;96.50;;;;;;5129117;27;19908;-94
2022/01/22 07:36:45;;;;;;;;;;;1.10;96.90;;;;;;5133835;27;19907;-93
2022/01/22 07:39:19;;;;;;;;;;;1.20;96.80;;;;;;5143477;27;19908;-94
2022/01/22 07:41:52;;;;;;;;;;;1.20;96.60;;;;;;5131830;27;19917;-94
2022/01/22 07:44:23;;;;;;;;;;;1.30;96.30;;;;;;5128909;27;19999;-94
2022/01/22 07:46:56;;;;;;;;;;;1.30;96.00;;;;;;5122343;27;19908;-94
2022/01/22 07:49:22;;;;;;;;;;;1.30;96.20;;;;;;5123238;27;19965;-94
2022/01/22 07:51:50;;;;;;;;;;;1.20;96.10;;;;;;5124971;27;19907;-94
2022/01/22 07:54:16;;;;;;;;;;;1.30;96.40;;;;;;5126383;27;19915;-94
2022/01/22 07:57:02;;;;;;;;;;;;;;;;;;;;;
2022/01/22 08:00:05;;;;;;;;;;;;;;;;;;;;;
2022/01/22 08:02:22;;;;;;;;;;;1.50;96.40;;;;;;5137262;27;19919;-94
2022/01/22 08:04:47;;;;;;;;;;;1.40;95.50;;;;;;5126966;28;19907;-94
2022/01/22 08:14:53;;;;;;;;;;;;;;;;;;;;;
2022/01/22 08:17:32;;;;;;;;;;;1.60;96.00;;;;;;4961626;29;20006;-94
2022/01/22 08:20:16;;;;;;;;;;;;;;;;;;;;;
2022/01/22 08:37:28;;;;;;;;;;;1.60;94.50;;;;;;5152062;28;19971;-93
2022/01/22 08:46:38;;;;;;;;;;;1.50;95.30;;;;;;5147130;27;20003;-93
2022/01/22 08:58:17;;;;;;;;;;;1.40;95.50;;;;;;5073608;27;19930;-93
2022/01/22 09:00:45;;;;;;;;;;;1.50;95.60;;;;;;5126913;27;20010;-92
2022/01/22 09:03:11;;;;;;;;;;;1.50;96.00;;;;;;5124397;27;20002;-92
2022/01/22 09:05:41;;;;;;;;;;;1.70;95.90;;;;;;5122522;27;19915;-92
2022/01/22 09:08:06;;;;;;;;;;;1.80;95.70;;;;;;5129456;27;20026;-92
2022/01/22 09:10:37;;;;;;;;;;;1.90;95.30;;;;;;5128529;27;19908;-92
2022/01/22 09:13:02;;;;;;;;;;;1.90;95.10;;;;;;5126641;27;19908;-92
2022/01/22 09:15:37;;;;;;;;;;;2.00;94.80;;;;;;5126548;27;19915;-92
2022/01/22 09:18:44;;;;;;;;;;;2.00;95.00;;;;;;5136493;27;19907;-94
2022/01/22 09:21:42;;;;;;;;;;;2.10;94.70;;;;;;5154600;27;19968;-93
2022/01/22 09:24:45;;;;;;;;;;;;;;;;;;;;;
2022/01/22 09:27:56;;;;;;;;;;;;;;;;;;;;;
2022/01/22 09:30:33;;;;;;;;;;;2.20;92.80;;;;;;5154090;27;19946;-95
2022/01/22 09:33:02;;;;;;;;;;;2.20;93.70;;;;;;5138500;27;19914;-92
2022/01/22 09:35:51;;;;;;;;;;;;;;;;;;;;;
2022/01/22 09:38:32;;;;;;;;;;;2.30;92.20;;;;;;5156936;27;19895;-92
2022/01/22 09:44:05;;;;;;;;;;;2.50;92.10;;;;;;5063897;28;20236;-92
2022/01/22 09:46:40;;;;;;;;;;;2.50;91.90;;;;;;5059550;28;19991;-92
2022/01/22 09:49:28;;;;;;;;;;;2.60;92.70;;;;;;5058158;28;19992;-92
2022/01/22 10:08:36;;;;;;;;;;;2.50;80.70;;;;;;5051663;28;19955;-91
2022/01/22 10:17:22;;;;;;;;;;;2.40;80.90;;;;;;5077922;28;19908;-92
2022/01/22 10:19:54;;;;;;;;;;;2.40;81.60;;;;;;5071337;28;19972;-93
2022/01/22 10:22:31;;;;;;;;;;;2.40;79.80;;;;;;5065645;28;19904;-93
2022/01/22 10:25:02;;;;;;;;;;;2.50;79.20;;;;;;5041925;28;20429;-94
2022/01/22 10:27:45;;;;;;;;;;;2.50;79.10;;;;;;5080342;28;19926;-93
2022/01/22 10:30:14;;;;;;;;;;;2.60;81.00;;;;;;5059896;28;19923;-93
2022/01/22 10:35:30;;;;;;;;;;;2.80;73.80;;;;;;5090310;28;19931;-91
2022/01/22 10:38:00;;;;;;;;;;;2.70;74.80;;;;;;5052634;28;19917;-93
2022/01/22 10:40:30;;;;;;;;;;;2.70;76.40;;;;;;5053603;28;19928;-93
2022/01/22 10:43:20;;;;;;;;;;;2.70;74.00;;;;;;5043070;28;19920;-93
2022/01/22 10:46:07;;;;;;;;;;;2.60;75.40;;;;;;5075376;28;20007;-93
2022/01/22 10:48:39;;;;;;;;;;;2.70;75.00;;;;;;5063240;28;19913;-93
2022/01/22 10:51:07;;;;;;;;;;;2.70;77.40;;;;;;5026514;28;19920;-94
2022/01/22 10:53:42;;;;;;;;;;;2.70;73.90;;;;;;5048828;28;19970;-92
2022/01/22 10:56:09;;;;;;;;;;;2.70;74.90;;;;;;5064852;28;19915;-93
2022/01/22 10:58:34;;;;;;;;;;;2.60;72.90;;;;;;5046456;28;19917;-93
2022/01/22 11:01:05;;;;;;;;;;;2.60;73.70;;;;;;5042714;28;20286;-92
2022/01/22 11:03:33;;;;;;;;;;;2.60;74.30;;;;;;5042910;28;20015;-92
2022/01/22 11:06:08;;;;;;;;;;;2.60;73.60;;;;;;5053701;28;19923;-93
2022/01/22 11:08:45;;;;;;;;;;;2.60;73.40;;;;;;5043893;28;19916;-92
2022/01/22 11:11:13;;;;;;;;;;;2.50;73.10;;;;;;5042978;28;20459;-93
2022/01/22 11:13:39;;;;;;;;;;;2.50;75.60;;;;;;5057325;28;19924;-93
2022/01/22 11:16:08;;;;;;;;;;;2.50;74.40;;;;;;5071344;28;20282;-93
2022/01/22 11:21:28;;;;;;;;;;;2.50;77.20;;;;;;5044598;28;19920;-95
2022/01/22 11:24:00;;;;;;;;;;;2.50;76.70;;;;;;5042950;28;19913;-92
2022/01/22 11:29:48;;;;;;;;;;;2.60;77.20;;;;;;5061794;28;19909;-94
2022/01/22 11:32:35;;;;;;;;;;;2.60;76.50;;;;;;5044274;28;20249;-95
2022/01/22 11:35:27;;;;;;;;;;;2.60;76.40;;;;;;5026336;28;19988;-94
2022/01/22 11:38:06;;;;;;;;;;;2.60;77.10;;;;;;5033308;28;19916;-93
2022/01/22 11:40:53;;;;;;;;;;;2.60;76.60;;;;;;5053024;28;19960;-94
2022/01/22 11:43:34;;;;;;;;;;;2.60;77.20;;;;;;5030128;28;19916;-94
2022/01/22 11:46:39;;;;;;;;;;;2.60;76.70;;;;;;5062715;28;19915;-94
2022/01/22 11:49:29;;;;;;;;;;;2.60;76.10;;;;;;5044990;28;19916;-95
2022/01/22 11:52:26;;;;;;;;;;;;;;;;;;;;;
2022/01/22 11:55:20;;;;;;;;;;;2.50;75.80;;;;;;5042513;28;19996;-94
2022/01/22 11:58:47;;;;;;;;;;;;;;;;;;;;;
2022/01/22 12:01:12;;;;;;;;;;;;;;;;;;;;;
2022/01/22 12:03:58;;;;;;;;;;;2.60;76.00;;;;;;5038540;28;19929;-93
2022/01/22 12:06:24;;;;;;;;;;;2.70;75.10;;;;;;5052158;28;19909;-92
2022/01/22 12:09:03;;;;;;;;;;;2.70;76.80;;;;;;5034546;28;19950;-93
2022/01/22 12:17:57;;;;;;;;;;;2.90;76.40;;;;;;5030669;28;19997;-94
2022/01/22 12:23:06;;;;;;;;;;;2.90;74.50;;;;;;5064722;28;19939;-93
2022/01/22 12:25:34;;;;;;;;;;;3.00;76.20;;;;;;5051497;28;19917;-93
2022/01/22 12:28:03;;;;;;;;;;;3.00;74.90;;;;;;5085521;28;19909;-94
2022/01/22 12:30:39;;;;;;;;;;;2.90;71.70;;;;;;5051513;28;19999;-94
2022/01/22 12:33:12;;;;;;;;;;;2.80;73.50;;;;;;5048632;28;19913;-96
2022/01/22 12:35:57;;;;;;;;;;;2.80;73.30;;;;;;5051405;28;19909;-95
2022/01/22 12:44:35;;;;;;;;;;;2.60;70.90;;;;;;5055598;28;19913;-92
2022/01/22 12:47:12;;;;;;;;;;;2.40;72.00;;;;;;5071859;28;19919;-91
2022/01/22 12:49:42;;;;;;;;;;;2.40;72.90;;;;;;5066605;28;19917;-93
2022/01/22 12:52:13;;;;;;;;;;;2.40;73.80;;;;;;5058141;28;19955;-94
2022/01/22 12:54:48;;;;;;;;;;;2.30;74.00;;;;;;5054013;28;19916;-93
2022/01/22 12:57:30;;;;;;;;;;;2.30;73.70;;;;;;5059402;28;19916;-93
2022/01/22 13:00:17;;;;;;;;;;;2.30;74.20;;;;;;5044015;28;20330;-94
2022/01/22 13:03:00;;;;;;;;;;;2.30;72.50;;;;;;5059665;28;19912;-93
2022/01/22 13:05:28;;;;;;;;;;;2.10;73.00;;;;;;5048841;28;19920;-94
2022/01/22 13:08:00;;;;;;;;;;;2.00;72.00;;;;;;5068771;28;19917;-95
2022/01/22 13:10:36;;;;;;;;;;;1.90;73.90;;;;;;5062424;28;19955;-94
2022/01/22 13:13:04;;;;;;;;;;;1.90;74.30;;;;;;5060835;28;19971;-94
2022/01/22 13:15:31;;;;;;;;;;;1.90;74.50;;;;;;5045160;28;19916;-94
2022/01/22 13:18:03;;;;;;;;;;;1.90;74.60;;;;;;5050254;28;20375;-94
2022/01/22 13:20:36;;;;;;;;;;;2.00;74.90;;;;;;5038563;28;19974;-95
2022/01/22 13:23:21;;;;;;;;;;;2.00;74.30;;;;;;5008447;28;20280;-94
2022/01/22 13:25:51;;;;;;;;;;;2.00;74.60;;;;;;5032795;28;20343;-93
2022/01/22 13:28:19;;;;;;;;;;;1.90;74.90;;;;;;5029486;28;19913;-93
2022/01/22 13:30:56;;;;;;;;;;;1.90;75.30;;;;;;5025417;28;19948;-93
2022/01/22 13:33:30;;;;;;;;;;;1.90;75.20;;;;;;5025959;28;19913;-94
2022/01/22 13:36:17;;;;;;;;;;;1.90;75.60;;;;;;5026900;28;19909;-94
2022/01/22 13:39:23;;;;;;;;;;;1.80;74.60;;;;;;5040812;28;19917;-94
2022/01/22 13:47:45;;;;;;;;;;;1.80;76.50;;;;;;5044986;28;20023;-94
2022/01/22 13:50:13;;;;;;;;;;;1.90;76.40;;;;;;5022218;28;19910;-94
2022/01/22 13:52:43;;;;;;;;;;;1.90;76.20;;;;;;5023765;28;19909;-93
2022/01/22 13:55:11;;;;;;;;;;;1.90;76.50;;;;;;5027529;28;19909;-95
2022/01/22 13:57:47;;;;;;;;;;;1.90;76.60;;;;;;5041217;28;20389;-94
2022/01/22 14:00:17;;;;;;;;;;;2.00;76.90;;;;;;5015236;28;19932;-94
2022/01/22 14:03:04;;;;;;;;;;;2.00;76.80;;;;;;5026971;28;19924;-95
2022/01/22 14:05:39;;;;;;;;;;;1.90;75.70;;;;;;5052890;28;19903;-94
2022/01/22 14:08:07;;;;;;;;;;;1.90;75.60;;;;;;5065223;28;19931;-93
2022/01/22 14:10:43;;;;;;;;;;;;;;;;;;;;;
2022/01/22 14:13:21;;;;;;;;;;;1.80;73.30;;;;;;5052684;28;20011;-95
2022/01/22 14:15:59;;;;;;;;;;;1.70;74.50;;;;;;5044378;28;19913;-94
2022/01/22 14:18:38;;;;;;;;;;;1.60;74.60;;;;;;5057508;28;19916;-95
2022/01/22 14:21:23;;;;;;;;;;;1.60;73.90;;;;;;5066520;28;19928;-94
2022/01/22 14:24:07;;;;;;;;;;;1.50;74.90;;;;;;5071604;28;20180;-94
2022/01/22 14:26:36;;;;;;;;;;;1.40;75.30;;;;;;5044066;28;19917;-93
2022/01/22 14:32:01;;;;;;;;;;;1.30;76.10;;;;;;5066185;28;19928;-94
2022/01/22 14:34:59;;;;;;;;;;;1.20;76.30;;;;;;5056826;28;19921;-95
2022/01/22 14:37:31;;;;;;;;;;;1.20;76.70;;;;;;5050947;28;19917;-94
2022/01/22 14:49:25;;;;;;;;;;;1.10;85.30;;;;;;5056538;28;19920;-96
2022/01/22 14:52:04;;;;;;;;;;;0.90;91.80;;;;;;5063393;28;19916;-96
2022/01/22 14:54:51;;;;;;;;;;;0.70;95.10;;;;;;5045367;28;19909;-96
2022/01/22 14:59:46;;;;;;;;;;;0.40;94.50;;;;;;5046025;28;19933;-94
2022/01/22 15:02:30;;;;;;;;;;;0.30;94.60;;;;;;5050719;28;19940;-95
2022/01/22 15:08:17;;;;;;;;;;;0.30;93.90;;;;;;5049383;28;19916;-93
2022/01/22 15:11:13;;;;;;;;;;;;;;;;;;;;;
2022/01/22 15:13:44;;;;;;;;;;;0.40;94.60;;;;;;5048292;28;19981;-95
2022/01/22 15:16:11;;;;;;;;;;;0.50;93.80;;;;;;5028285;28;19913;-95
2022/01/22 15:21:09;;;;;;;;;;;0.50;93.80;;;;;;5040196;28;19959;-94
2022/01/22 15:23:54;;;;;;;;;;;0.50;94.40;;;;;;5041592;28;20356;-95
2022/01/22 15:26:25;;;;;;;;;;;0.50;94.50;;;;;;5041700;28;19932;-95
2022/01/22 15:28:55;;;;;;;;;;;0.50;94.30;;;;;;5042802;28;19956;-95
2022/01/22 15:31:36;;;;;;;;;;;0.60;94.90;;;;;;5022996;28;19918;-95
2022/01/22 15:34:10;;;;;;;;;;;0.60;93.20;;;;;;5033641;28;19967;-94
2022/01/22 15:36:38;;;;;;;;;;;0.60;94.00;;;;;;5028090;28;20004;-94
2022/01/22 15:42:16;;;;;;;;;;;;;;;;;;;;;
2022/01/22 15:45:01;;;;;;;;;;;;;;;;;;;;;
2022/01/22 15:47:51;;;;;;;;;;;0.60;94.00;;;;;;5028482;28;19963;-94
2022/01/22 15:51:04;;;;;;;;;;;0.60;94.30;;;;;;5044237;28;19969;-95
2022/01/22 15:53:52;;;;;;;;;;;0.60;94.50;;;;;;5009065;28;19909;-95
2022/01/22 15:56:22;;;;;;;;;;;0.70;94.80;;;;;;5049140;28;19908;-95
2022/01/22 15:59:16;;;;;;;;;;;0.70;95.00;;;;;;5040813;28;20365;-95
2022/01/22 16:01:45;;;;;;;;;;;0.70;95.40;;;;;;5030713;28;19905;-95
2022/01/22 16:04:18;;;;;;;;;;;0.80;95.40;;;;;;5057024;28;20004;-94
2022/01/22 16:07:00;;;;;;;;;;;0.80;95.20;;;;;;5037437;28;19980;-96
2022/01/22 16:12:52;;;;;;;;;;;;;;;;;;;;;
2022/01/22 16:15:34;;;;;;;;;;;0.80;95.50;;;;;;5038892;28;19956;-95
2022/01/22 16:18:03;;;;;;;;;;;0.70;95.40;;;;;;5045647;28;19935;-93
2022/01/22 16:20:50;;;;;;;;;;;0.70;95.50;;;;;;5043036;28;19931;-93
2022/01/22 16:23:15;;;;;;;;;;;0.60;95.30;;;;;;5055685;28;19952;-93
2022/01/22 16:25:43;;;;;;;;;;;0.60;95.60;;;;;;5041360;28;19920;-94
2022/01/22 16:28:15;;;;;;;;;;;0.50;95.60;;;;;;5060972;28;19978;-94
2022/01/22 16:30:49;;;;;;;;;;;0.50;95.80;;;;;;5032489;28;20327;-95
2022/01/22 16:33:18;;;;;;;;;;;0.40;96.00;;;;;;5037397;28;19913;-95
2022/01/22 16:35:51;;;;;;;;;;;0.40;96.10;;;;;;5049310;28;19909;-93
2022/01/22 16:38:28;;;;;;;;;;;0.30;96.00;;;;;;5042789;28;19920;-95
2022/01/22 16:40:57;;;;;;;;;;;0.30;96.20;;;;;;5035112;28;20260;-95
2022/01/22 16:43:33;;;;;;;;;;;0.30;96.30;;;;;;5058335;28;20252;-93
2022/01/22 16:57:42;;;;;;;;;;;-0.20;96.80;;;;;;5056866;28;19903;-96
2022/01/22 17:00:16;;;;;;;;;;;-0.30;97.10;;;;;;5043439;28;19928;-95
2022/01/22 17:02:53;;;;;;;;;;;-0.40;97.30;;;;;;5044880;28;19953;-95
2022/01/22 17:05:29;;;;;;;;;;;;;;;;;;;;;
2022/01/22 17:08:13;;;;;;;;;;;-0.60;98.20;;;;;;5069118;28;19929;-95
2022/01/22 17:16:17;;;;;;;;;;;-0.90;98.80;;;;;;5060497;28;19924;-95
2022/01/22 17:18:51;;;;;;;;;;;-0.90;98.70;;;;;;5037522;28;19913;-95
2022/01/22 17:21:22;;;;;;;;;;;-0.90;99.00;;;;;;5044362;28;19933;-94
2022/01/22 17:23:53;;;;;;;;;;;-1.00;98.80;;;;;;5036511;28;19923;-95
2022/01/22 17:26:42;;;;;;;;;;;;;;;;;;;;;
2022/01/22 17:29:08;;;;;;;;;;;-1.00;99.00;;;;;;5051003;28;19944;-95
2022/01/22 17:31:37;;;;;;;;;;;-1.10;99.20;;;;;;5060450;28;20000;-95
2022/01/22 17:34:30;;;;;;;;;;;-1.10;99.30;;;;;;5068646;28;19912;-94
2022/01/22 17:37:11;;;;;;;;;;;-1.10;99.30;;;;;;5047689;28;19977;-95
2022/01/22 17:39:58;;;;;;;;;;;-1.20;99.40;;;;;;5063963;28;19913;-95
2022/01/22 17:42:48;;;;;;;;;;;-1.20;99.60;;;;;;5058666;28;19979;-95
2022/01/22 17:45:23;;;;;;;;;;;-1.10;99.80;;;;;;5035976;28;19924;-95
2022/01/22 17:48:01;;;;;;;;;;;-1.10;99.80;;;;;;5054097;28;19909;-94
2022/01/22 17:50:47;;;;;;;;;;;-1.10;99.70;;;;;;5035566;28;19917;-95
2022/01/22 17:53:47;;;;;;;;;;;-1.00;99.70;;;;;;5047127;28;19993;-95
2022/01/22 17:56:41;;;;;;;;;;;-1.00;99.60;;;;;;5050433;28;19917;-95
2022/01/22 17:59:29;;;;;;;;;;;-1.00;99.60;;;;;;5039487;28;20278;-94
2022/01/22 18:02:02;;;;;;;;;;;-0.90;99.70;;;;;;5015455;28;19926;-95
2022/01/22 18:04:42;;;;;;;;;;;-0.90;99.60;;;;;;5032922;28;19917;-95
2022/01/22 18:07:12;;;;;;;;;;;-0.80;99.70;;;;;;5015247;28;19917;-94
2022/01/22 18:09:48;;;;;;;;;;;-0.80;99.60;;;;;;5032621;28;19913;-96
2022/01/22 18:12:23;;;;;;;;;;;-0.80;99.60;;;;;;5013623;28;19939;-93
2022/01/22 18:14:50;;;;;;;;;;;-0.80;99.50;;;;;;5033424;28;19917;-94
2022/01/22 18:17:17;;;;;;;;;;;-0.80;99.50;;;;;;5024244;28;19951;-93
2022/01/22 18:19:43;;;;;;;;;;;-0.80;99.70;;;;;;5007824;28;19918;-95
2022/01/22 18:22:08;;;;;;;;;;;-0.70;99.60;;;;;;5012873;28;20411;-93
2022/01/22 18:24:37;;;;;;;;;;;-0.70;99.60;;;;;;5016604;28;19932;-96
2022/01/22 18:29:58;;;;;;;;;;;-0.60;99.50;;;;;;5071584;28;19925;-95
2022/01/22 18:32:32;;;;;;;;;;;-0.60;99.70;;;;;;5059324;28;19901;-95
2022/01/22 18:35:20;;;;;;;;;;;-0.60;99.40;;;;;;5076535;28;19916;-95
2022/01/22 18:37:47;;;;;;;;;;;-0.60;99.30;;;;;;5035140;28;19921;-95
2022/01/22 18:40:26;;;;;;;;;;;-0.50;99.60;;;;;;5062219;28;19905;-96
2022/01/22 18:44:02;;;;;;;;;;;-0.50;99.80;;;;;;5049643;28;19909;-93
2022/01/22 18:46:40;;;;;;;;;;;-0.40;99.40;;;;;;5059015;28;19923;-95
2022/01/22 18:50:12;;;;;;;;;;;;;;;;;;;;;
2022/01/22 18:52:25;;;;;;;;;;;-0.30;99.50;;;;;;5067972;28;19909;-95
2022/01/22 18:55:19;;;;;;;;;;;-0.30;99.50;;;;;;5058970;28;19909;-96
2022/01/22 18:57:49;;;;;;;;;;;-0.20;99.40;;;;;;5049154;28;19935;-95
2022/01/22 19:03:42;;;;;;;;;;;-0.20;99.10;;;;;;4997494;28;19922;-95
2022/01/22 19:06:35;;;;;;;;;;;-0.10;99.20;;;;;;5057809;28;19939;-95
2022/01/22 19:09:08;;;;;;;;;;;-0.10;99.10;;;;;;5045881;28;19908;-96
2022/01/22 19:11:56;;;;;;;;;;;-0.10;98.90;;;;;;5059354;28;19916;-96
2022/01/22 19:15:06;;;;;;;;;;;-0.20;98.70;;;;;;5076444;28;19930;-96
2022/01/22 19:17:46;;;;;;;;;;;-0.30;98.80;;;;;;5054456;28;19935;-96
2022/01/22 19:20:22;;;;;;;;;;;-0.30;99.10;;;;;;5059645;28;19923;-96
2022/01/22 19:29:32;;;;;;;;;;;-0.20;99.00;;;;;;4997230;28;19918;-96
2022/01/22 19:32:30;;;;;;;;;;;-0.10;99.10;;;;;;4980844;28;19938;-96
2022/01/22 19:35:05;;;;;;;;;;;-0.10;99.40;;;;;;4980712;28;19906;-95
2022/01/22 19:37:39;;;;;;;;;;;0.00;99.30;;;;;;4997822;28;19949;-95
2022/01/22 19:40:31;;;;;;;;;;;;;;;;;;;;;
2022/01/22 19:43:30;;;;;;;;;;;;;;;;;;;;;
2022/01/22 19:46:16;;;;;;;;;;;0.10;98.90;;;;;;5077193;28;19932;-95
2022/01/22 19:49:05;;;;;;;;;;;;;;;;;;;;;
2022/01/22 19:51:40;;;;;;;;;;;0.10;98.70;;;;;;5072782;28;19940;-94
2022/01/22 19:54:24;;;;;;;;;;;;;;;;;;;;;
2022/01/22 20:00:09;;;;;;;;;;;0.10;99.00;;;;;;4944893;29;19915;-95
2022/01/22 20:03:11;;;;;;;;;;;;;;;;;;;;;
2022/01/22 20:05:51;;;;;;;;;;;-0.10;99.10;;;;;;5072844;28;19936;-95
2022/01/22 20:08:22;;;;;;;;;;;-0.10;98.70;;;;;;5058044;28;19982;-95
2022/01/22 20:11:10;;;;;;;;;;;-0.20;99.30;;;;;;5059098;28;19917;-96
2022/01/22 20:14:05;;;;;;;;;;;-0.20;99.30;;;;;;5043908;28;19908;-95
2022/01/22 20:16:46;;;;;;;;;;;-0.20;99.20;;;;;;4961054;29;19911;-95
2022/01/22 20:19:25;;;;;;;;;;;-0.30;99.20;;;;;;4961874;29;19957;-96
2022/01/22 20:22:11;;;;;;;;;;;-0.30;99.50;;;;;;5028986;28;19939;-95
2022/01/22 20:24:48;;;;;;;;;;;-0.30;99.50;;;;;;5048082;28;19909;-95
2022/01/22 20:27:20;;;;;;;;;;;-0.40;99.20;;;;;;5060229;28;19909;-95
2022/01/22 20:30:01;;;;;;;;;;;-0.50;99.10;;;;;;5055642;28;19996;-95
2022/01/22 20:32:47;;;;;;;;;;;-0.60;99.60;;;;;;5059916;28;19917;-95
2022/01/22 20:35:40;;;;;;;;;;;-0.60;99.40;;;;;;5041551;28;19901;-96
2022/01/22 20:39:00;;;;;;;;;;;-0.60;99.10;;;;;;5046660;28;19924;-95